Pictou, Nova Scotia

11:44 AM ADT on September 05, 2015 (GMT -0300)
Stellarton | | Change Station
CLOSE
Current Station
Personal Weather Station
Location: Stellarton, NOVA SCOTIA
Elevation: 167 ft
Nearby Weather Stations

Elev 167 ft 45.55 °N, 62.67 °W | Updated 12 minutes ago

Mostly Cloudy
Mostly Cloudy
66.9 °F
Feels Like 66.9 °F
N
1.7
Wind Variable Wind from NNW

Today
High -- | Low -- °F
--% Chance of Precip.
Yesterday
High -- | Low -- °F
Precip. -- in
6:36 AM 7:41 PM
Waning Gibbous, 48% visible
Pressure 30.17 in
Visibility 15.0 miles
Clouds Few 1500 ft
Mostly Cloudy 33000 ft
Dew Point 51 °F
Humidity 56%
Rainfall 0.00 in
Snow Depth Not available.
UV 3 out of 12
Pollen Not available.
Air Quality Not available.
Flu Activity Not available.
METAR CYYG 051400Z 23011KT 15SM FEW015 BKN330 18/12 A3017 RMK CF1CI7 CF TR SLP217 DENSITY ALT 200FT
Pressure 30.17 in
Visibility 15.0 miles
Clouds Few 1500 ft
Mostly Cloudy 33000 ft
Dew Point 51 °F
Humidity 56%
Rainfall 0.00 in
Snow Depth Not available.
UV 3 out of 12
Pollen Not available.
Air Quality Not available.
Flu Activity Not available.
METAR CYYG 051400Z 23011KT 15SM FEW015 BKN330 18/12 A3017 RMK CF1CI7 CF TR SLP217 DENSITY ALT 200FT

10-Day Weather Forecast

×

Almanac

Astronomy

Sep. 05, 2015 Rise Set
Actual Time
Civil Twilight
Nautical Twilight
Astronomical Twilight
Moon
Length of Visible Light
Length of Day
Tomorrow will be .
, % of the Moon is Illuminated

Today's Extremes

Country Highs Country Lows

Community

WunderPhotos

Upload Photos

1,852,481 photos uploaded!

WunderBlogs® & News

Nearby

Air Quality

  Air Quality AQ Index Pollutant
Not available.

Snow Depth

Station Depth Elevation

Earthquake Activity

City Distance Mag. Time & Date
Minimum magnitude displayed is 2.5.

Coastal Water Temperatures

Place Temperature

Stations

Nearby Weather Stations

Station Location Temp. Windchill Dew Point Humidity Wind Precip. Elev Updated Type